createdAt,value
2023-05-04T00:00:15.357Z,102720.59
2023-05-04T00:02:16.887Z,102720.56
2023-05-04T00:04:18.545Z,102717.94
2023-05-04T00:06:20.082Z,102719.63
2023-05-04T00:08:21.620Z,102713.44
2023-05-04T00:10:23.074Z,102718.72
2023-05-04T00:12:24.539Z,102712.56
2023-05-04T00:14:25.999Z,102709.94
2023-05-04T00:16:27.566Z,102704.66
2023-05-04T00:18:29.024Z,102701.13
2023-05-04T00:20:30.560Z,102700.22
2023-05-04T00:22:32.475Z,102705.44
2023-05-04T00:24:34.004Z,102698.34
2023-05-04T00:26:35.490Z,102702.66
2023-05-04T00:28:36.961Z,102698.28
2023-05-04T00:30:38.611Z,102697.38
2023-05-04T00:32:40.103Z,102692.06
2023-05-04T00:34:41.632Z,102698.19
2023-05-04T00:36:43.440Z,102692.00
2023-05-04T00:38:49.181Z,102694.59
2023-05-04T00:40:50.704Z,102695.47
2023-05-04T00:42:52.394Z,102696.34
2023-05-04T00:44:53.874Z,102687.56
2023-05-04T00:46:55.486Z,102690.09
2023-05-04T00:48:59.391Z,102686.69
2023-05-04T00:51:01.166Z,102688.38
2023-05-04T00:53:08.637Z,102688.34
2023-05-04T00:55:10.972Z,102683.00
2023-05-04T00:57:12.842Z,102678.59
2023-05-04T00:59:14.577Z,102673.34
2023-05-04T01:01:16.112Z,102681.16
2023-05-04T01:03:18.864Z,102679.34
2023-05-04T01:05:20.889Z,102674.94
2023-05-04T01:07:38.455Z,102670.56
2023-05-04T01:09:47.163Z,102673.09
2023-05-04T01:11:54.920Z,102673.06
2023-05-04T01:13:56.828Z,102668.66
2023-05-04T01:15:58.899Z,102664.25
2023-05-04T01:18:00.489Z,102665.16
2023-05-04T01:20:02.370Z,102658.94
2023-05-04T01:22:04.098Z,102665.00
2023-05-04T01:24:07.122Z,102662.34
2023-05-04T01:26:23.003Z,102665.81
2023-05-04T01:28:34.870Z,102663.16
2023-05-04T01:30:41.049Z,102659.59
2023-05-04T01:32:43.074Z,102665.72
2023-05-04T01:34:44.598Z,102661.38
2023-05-04T01:36:46.424Z,102669.22
2023-05-04T01:38:49.047Z,102664.81
2023-05-04T01:40:50.794Z,102659.53
2023-05-04T01:42:52.639Z,102669.09
2023-05-04T01:44:54.178Z,102661.19
2023-05-04T01:46:55.662Z,102655.88
2023-05-04T01:48:57.148Z,102656.75
2023-05-04T01:50:58.646Z,102657.59
2023-05-04T01:53:00.156Z,102662.81
2023-05-04T01:55:01.710Z,102659.31
2023-05-04T01:57:03.266Z,102664.56
2023-05-04T01:59:04.775Z,102654.06
2023-05-04T02:01:06.471Z,102659.31
2023-05-04T02:03:09.557Z,102661.88
2023-05-04T02:05:11.721Z,102658.31
2023-05-04T02:07:13.809Z,102652.16
2023-05-04T02:09:15.634Z,102653.00
2023-05-04T02:11:17.244Z,102650.34
2023-05-04T02:13:19.166Z,102647.72
2023-05-04T02:15:20.745Z,102644.19
2023-05-04T02:17:22.205Z,102646.75
2023-05-04T02:19:23.655Z,102639.75
2023-05-04T02:21:25.163Z,102645.84
2023-05-04T02:23:26.809Z,102637.94
2023-05-04T02:25:28.413Z,102645.69
2023-05-04T02:27:29.952Z,102637.81
2023-05-04T02:29:31.497Z,102637.78
2023-05-04T02:31:34.005Z,102633.38
2023-05-04T02:33:35.487Z,102636.88
2023-05-04T02:35:36.972Z,102638.63
2023-05-04T02:37:38.566Z,102636.88
2023-05-04T02:39:40.019Z,102638.59
2023-05-04T02:41:41.507Z,102635.09
2023-05-04T02:43:43.004Z,102632.44
2023-05-04T02:45:44.572Z,102628.91
2023-05-04T02:47:46.222Z,102619.28
2023-05-04T02:49:47.673Z,102623.59
2023-05-04T02:51:49.095Z,102624.47
2023-05-04T02:53:50.669Z,102620.03
2023-05-04T02:55:52.123Z,102619.16
2023-05-04T02:57:53.552Z,102614.75
2023-05-04T02:59:55.011Z,102618.22
2023-05-04T03:01:56.580Z,102614.72
2023-05-04T03:03:58.079Z,102609.44
2023-05-04T03:05:59.508Z,102616.41
2023-05-04T03:08:01.047Z,102609.41
2023-05-04T03:10:02.677Z,102609.41
2023-05-04T03:12:04.353Z,102610.19
2023-05-04T03:14:06.618Z,102618.91
2023-05-04T03:16:08.114Z,102611.88
2023-05-04T03:18:09.604Z,102613.63
2023-05-04T03:20:13.042Z,102619.72
2023-05-04T03:22:14.490Z,102608.28
2023-05-04T03:24:18.224Z,102610.91
2023-05-04T03:26:19.688Z,102609.97
2023-05-04T03:28:21.155Z,102612.50
2023-05-04T03:30:22.629Z,102605.50
2023-05-04T03:32:24.836Z,102604.63
2023-05-04T03:34:26.315Z,102605.47
2023-05-04T03:36:27.851Z,102607.19
2023-05-04T03:38:29.296Z,102601.94
2023-05-04T03:40:31.125Z,102601.91
2023-05-04T03:42:32.606Z,102594.94
2023-05-04T03:44:34.142Z,102592.28
2023-05-04T03:46:35.824Z,102594.03
2023-05-04T03:48:37.517Z,102584.38
2023-05-04T03:50:39.062Z,102586.09
2023-05-04T03:52:40.600Z,102586.06
2023-05-04T03:54:42.113Z,102593.94
2023-05-04T03:56:43.560Z,102583.47
2023-05-04T03:58:45.009Z,102588.72
2023-05-04T04:00:46.664Z,102581.78
2023-05-04T04:02:48.177Z,102579.16
2023-05-04T04:04:49.740Z,102580.03
2023-05-04T04:06:51.159Z,102570.44
2023-05-04T04:08:52.694Z,102579.22
2023-05-04T04:10:54.165Z,102574.88
2023-05-04T04:12:55.653Z,102563.53
2023-05-04T04:14:57.105Z,102566.16
2023-05-04T04:16:58.608Z,102573.19
2023-05-04T04:19:01.817Z,102570.63
2023-05-04T04:21:03.503Z,102568.06
2023-05-04T04:23:04.964Z,102577.75
2023-05-04T04:25:07.169Z,102573.41
2023-05-04T04:27:08.784Z,102573.44
2023-05-04T04:29:10.263Z,102574.31
2023-05-04T04:31:11.756Z,102576.97
2023-05-04T04:33:13.277Z,102575.22
2023-05-04T04:35:15.021Z,102573.53
2023-05-04T04:37:16.589Z,102573.63
2023-05-04T04:39:18.168Z,102573.69
2023-05-04T04:41:19.682Z,102578.19
2023-05-04T04:43:21.108Z,102574.75
2023-05-04T04:45:23.602Z,102574.03
2023-05-04T04:47:25.571Z,102580.34
2023-05-04T04:49:27.401Z,102578.75
2023-05-04T04:51:29.414Z,102582.38
2023-05-04T04:53:31.271Z,102586.84
2023-05-04T04:55:34.390Z,102588.72
2023-05-04T04:57:36.222Z,102594.94
2023-05-04T04:59:38.174Z,102590.66
2023-05-04T05:01:39.984Z,102590.78
2023-05-04T05:03:41.469Z,102589.09
2023-05-04T05:05:42.938Z,102597.00
2023-05-04T05:07:44.503Z,102590.09
2023-05-04T05:09:46.145Z,102593.63
2023-05-04T05:11:47.729Z,102589.31
2023-05-04T05:13:49.393Z,102585.88
2023-05-04T05:15:50.924Z,102590.31
2023-05-04T05:17:52.513Z,102588.59
2023-05-04T05:19:54.050Z,102588.66
2023-05-04T05:21:56.946Z,102588.72
2023-05-04T05:23:58.427Z,102600.16
2023-05-04T05:26:02.010Z,102597.63
2023-05-04T05:28:04.758Z,102597.69
2023-05-04T05:30:07.031Z,102597.84
2023-05-04T05:32:08.833Z,102596.19
2023-05-04T05:34:10.324Z,102591.88
2023-05-04T05:36:11.785Z,102598.09
2023-05-04T05:38:13.245Z,102597.31
2023-05-04T05:40:15.265Z,102593.91
2023-05-04T05:42:16.994Z,102597.47
2023-05-04T05:44:18.564Z,102597.56
2023-05-04T05:46:20.341Z,102596.78
2023-05-04T05:48:21.856Z,102599.50
2023-05-04T05:50:24.074Z,102592.59
2023-05-04T05:52:25.602Z,102592.69
2023-05-04T05:54:27.409Z,102593.66
2023-05-04T05:56:28.919Z,102598.13
2023-05-04T05:58:30.473Z,102591.19
2023-05-04T06:00:31.961Z,102595.66
2023-05-04T06:02:33.483Z,102597.47
2023-05-04T06:04:35.012Z,102592.28
2023-05-04T06:06:36.664Z,102594.09
2023-05-04T06:08:38.147Z,102588.94
2023-05-04T06:10:39.649Z,102585.53
2023-05-04T06:12:41.186Z,102587.34
2023-05-04T06:14:43.268Z,102582.13
2023-05-04T06:16:44.875Z,102583.94
2023-05-04T06:18:46.582Z,102582.22
2023-05-04T06:20:48.222Z,102587.56
2023-05-04T06:22:49.758Z,102585.00
2023-05-04T06:24:51.264Z,102576.25
2023-05-04T06:26:52.818Z,102569.28
2023-05-04T06:28:54.338Z,102573.69
2023-05-04T06:30:55.833Z,102571.09
2023-05-04T06:32:57.414Z,102571.09
2023-05-04T06:34:59.485Z,102566.75
2023-05-04T06:37:01.043Z,102571.19
2023-05-04T06:39:02.534Z,102570.34
2023-05-04T06:41:04.081Z,102571.25
2023-05-04T06:43:06.683Z,102558.13
2023-05-04T06:45:08.541Z,102553.75
2023-05-04T06:47:10.226Z,102559.03
2023-05-04T06:49:12.307Z,102561.75
2023-05-04T06:51:13.765Z,102560.00
2023-05-04T06:53:15.256Z,102553.88
2023-05-04T06:55:16.776Z,102554.75
2023-05-04T06:57:18.236Z,102548.63
2023-05-04T06:59:20.469Z,102551.28
2023-05-04T07:01:22.095Z,102546.91
2023-05-04T07:03:23.606Z,102548.69
2023-05-04T07:05:25.912Z,102548.72
2023-05-04T07:07:27.456Z,102541.69
2023-05-04T07:09:28.902Z,102539.94
2023-05-04T07:11:31.016Z,102542.56
2023-05-04T07:13:32.548Z,102530.25
2023-05-04T07:15:34.062Z,102533.75
2023-05-04T07:17:37.246Z,102538.13
2023-05-04T07:19:38.678Z,102535.50
2023-05-04T07:21:40.256Z,102539.00
2023-05-04T07:23:41.711Z,102532.78
2023-05-04T07:25:43.651Z,102541.56
2023-05-04T07:27:45.155Z,102531.84
2023-05-04T07:29:47.179Z,102527.44
2023-05-04T07:31:48.748Z,102535.34
2023-05-04T07:33:50.292Z,102531.78
2023-05-04T07:35:57.322Z,102525.56
2023-05-04T07:37:58.769Z,102522.88
2023-05-04T07:40:00.560Z,102521.06
2023-05-04T07:42:06.247Z,102514.00
2023-05-04T07:44:08.796Z,102520.19
2023-05-04T07:46:10.437Z,102513.06
2023-05-04T07:48:12.063Z,102509.50
2023-05-04T07:50:14.255Z,102512.09
2023-05-04T07:52:16.012Z,102512.03
2023-05-04T07:54:17.757Z,102501.41
2023-05-04T07:56:19.474Z,102501.38
2023-05-04T07:58:21.053Z,102505.75
2023-05-04T08:00:22.762Z,102496.88
2023-05-04T08:02:24.338Z,102495.06
2023-05-04T08:04:25.876Z,102496.75
2023-05-04T08:06:27.338Z,102496.69
2023-05-04T08:08:28.889Z,102496.59
2023-05-04T08:10:30.425Z,102503.66
2023-05-04T08:12:32.050Z,102497.38
2023-05-04T08:14:34.127Z,102497.28
2023-05-04T08:16:36.444Z,102497.19
2023-05-04T08:18:38.255Z,102489.16
2023-05-04T08:20:39.736Z,102493.50
2023-05-04T08:22:41.285Z,102489.06
2023-05-04T08:24:42.776Z,102482.78
2023-05-04T08:26:49.543Z,102481.84
2023-05-04T08:29:10.335Z,102479.09
2023-05-04T08:31:13.153Z,102483.41
2023-05-04T08:33:14.771Z,102482.41
2023-05-04T08:35:16.355Z,102476.09
2023-05-04T08:37:17.819Z,102476.81
2023-05-04T08:39:19.421Z,102483.72
2023-05-04T08:41:20.953Z,102476.47
2023-05-04T08:43:22.617Z,102469.28
2023-05-04T08:45:25.205Z,102462.03
2023-05-04T08:47:29.094Z,102458.34
2023-05-04T08:49:30.756Z,102465.31
2023-05-04T08:51:35.733Z,102459.91
2023-05-04T08:53:41.696Z,102457.13
2023-05-04T08:55:46.817Z,102454.44
2023-05-04T08:57:49.501Z,102455.31
2023-05-04T08:59:53.797Z,102457.03
2023-05-04T09:01:58.668Z,102451.63
2023-05-04T09:04:03.263Z,102450.66
2023-05-04T09:06:07.268Z,102446.97
2023-05-04T09:08:08.887Z,102445.03
2023-05-04T09:10:10.709Z,102444.91
2023-05-04T09:12:12.554Z,102445.72
2023-05-04T09:14:14.308Z,102443.00
2023-05-04T09:16:16.416Z,102434.97
2023-05-04T09:18:18.047Z,102440.22
2023-05-04T09:20:19.779Z,102434.78
2023-05-04T09:22:21.376Z,102442.56
2023-05-04T09:24:40.906Z,102433.41
2023-05-04T09:26:42.385Z,102431.47
2023-05-04T09:28:43.887Z,102433.91
2023-05-04T09:30:46.943Z,102428.31
2023-05-04T09:32:49.775Z,102421.00
2023-05-04T09:34:52.620Z,102419.88
2023-05-04T09:37:01.986Z,102412.66
2023-05-04T09:39:13.671Z,102414.25
2023-05-04T09:41:15.159Z,102415.94
2023-05-04T09:43:16.661Z,102414.91
2023-05-04T09:45:18.159Z,102415.66
2023-05-04T09:47:19.640Z,102418.06
2023-05-04T09:49:30.342Z,102421.50
2023-05-04T09:51:32.020Z,102421.41
2023-05-04T09:53:36.144Z,102411.41
2023-05-04T09:55:42.591Z,102418.25
2023-05-04T09:57:45.770Z,102414.50
2023-05-04T09:59:47.361Z,102411.75
2023-05-04T10:01:49.947Z,102425.88
2023-05-04T10:03:53.626Z,102415.94
2023-05-04T10:05:55.374Z,102414.81
2023-05-04T10:08:00.007Z,102413.81
2023-05-04T10:10:01.579Z,102413.84
2023-05-04T10:12:06.503Z,102407.63
2023-05-04T10:14:08.510Z,102409.16
2023-05-04T10:16:39.540Z,102405.19
2023-05-04T10:19:08.112Z,102398.31
2023-05-04T10:21:30.893Z,102389.72
2023-05-04T10:23:55.413Z,102393.84
2023-05-04T10:26:18.306Z,102380.75
2023-05-04T10:28:55.793Z,102377.47
2023-05-04T10:30:58.439Z,102379.31
2023-05-04T10:33:02.111Z,102369.22
2023-05-04T10:35:08.224Z,102376.81
2023-05-04T10:37:20.358Z,102370.91
2023-05-04T10:39:24.240Z,102369.41
2023-05-04T10:41:25.800Z,102359.97
2023-05-04T10:43:29.165Z,102360.50
2023-05-04T10:45:37.646Z,102351.25
2023-05-04T10:47:40.823Z,102347.25
2023-05-04T10:49:42.638Z,102348.31
2023-05-04T10:51:49.336Z,102350.50
2023-05-04T10:53:51.893Z,102343.03
2023-05-04T10:55:53.667Z,102344.75
2023-05-04T10:57:57.241Z,102340.28
2023-05-04T10:59:59.113Z,102333.56
2023-05-04T11:02:01.935Z,102335.84
2023-05-04T11:04:03.797Z,102334.22
2023-05-04T11:06:16.975Z,102322.09
2023-05-04T11:08:20.773Z,102311.78
2023-05-04T11:10:26.739Z,102318.13
2023-05-04T11:12:28.552Z,102313.13
2023-05-04T11:14:30.042Z,102309.22
2023-05-04T11:16:31.552Z,102312.25
2023-05-04T11:18:35.315Z,102308.19
2023-05-04T11:20:36.993Z,102313.34
2023-05-04T11:22:38.499Z,102303.84
2023-05-04T11:24:45.741Z,102298.34
2023-05-04T11:26:49.174Z,102294.38
2023-05-04T11:28:51.287Z,102292.09
2023-05-04T11:30:56.012Z,102287.00
2023-05-04T11:33:00.220Z,102288.09
2023-05-04T11:35:02.308Z,102284.50
2023-05-04T11:37:06.390Z,102280.06
2023-05-04T11:39:08.312Z,102272.41
2023-05-04T11:41:10.746Z,102271.63
2023-05-04T11:43:12.687Z,102270.72
2023-05-04T11:45:21.373Z,102274.31
2023-05-04T11:47:22.930Z,102266.53
2023-05-04T11:49:26.795Z,102264.19
2023-05-04T11:51:29.952Z,102267.09
2023-05-04T11:53:38.928Z,102270.19
2023-05-04T11:55:41.902Z,102267.25
2023-05-04T11:57:43.401Z,102269.19
2023-05-04T11:59:51.433Z,102260.72
2023-05-04T12:01:52.934Z,102261.88
2023-05-04T12:03:55.076Z,102251.50
2023-05-04T12:05:57.772Z,102250.19
2023-05-04T12:07:59.404Z,102253.25
2023-05-04T12:10:00.853Z,102252.28
2023-05-04T12:12:02.430Z,102252.84
2023-05-04T12:14:06.914Z,102256.41
2023-05-04T12:16:09.231Z,102256.22
2023-05-04T12:18:22.174Z,102257.50
2023-05-04T12:20:26.005Z,102245.50
2023-05-04T12:22:28.818Z,102248.19
2023-05-04T12:24:30.302Z,102238.38
2023-05-04T12:26:31.839Z,102236.56
2023-05-04T12:28:34.982Z,102242.06
2023-05-04T12:30:36.497Z,102241.59
2023-05-04T12:32:38.350Z,102243.31
2023-05-04T12:34:39.875Z,102231.56
2023-05-04T12:36:41.443Z,102247.31
2023-05-04T12:38:42.931Z,102242.44
2023-05-04T12:40:44.537Z,102248.69
2023-05-04T12:42:46.012Z,102245.44
2023-05-04T12:44:47.701Z,102235.13
2023-05-04T12:46:49.153Z,102241.19
2023-05-04T12:48:50.660Z,102232.00
2023-05-04T12:50:52.248Z,102237.53
2023-05-04T12:52:53.787Z,102221.56
2023-05-04T12:54:55.296Z,102223.91
2023-05-04T12:56:58.036Z,102227.38
2023-05-04T12:58:59.510Z,102226.16
2023-05-04T13:01:01.202Z,102222.09
2023-05-04T13:03:04.088Z,102217.13
2023-05-04T13:05:07.217Z,102215.81
2023-05-04T13:07:09.000Z,102205.94
2023-05-04T13:09:10.479Z,102201.06
2023-05-04T13:11:11.964Z,102198.56
2023-05-04T13:13:16.244Z,102196.56
2023-05-04T13:15:18.106Z,102191.56
2023-05-04T13:17:20.334Z,102189.88
2023-05-04T13:19:22.296Z,102182.22
2023-05-04T13:21:23.835Z,102180.06
2023-05-04T13:23:25.450Z,102169.72
2023-05-04T13:25:27.067Z,102179.94
2023-05-04T13:27:28.584Z,102166.66
2023-05-04T13:29:30.077Z,102171.53
2023-05-04T13:31:31.831Z,102167.38
2023-05-04T13:33:34.218Z,102165.00
2023-05-04T13:35:35.795Z,102168.22
2023-05-04T13:37:38.181Z,102164.88
2023-05-04T13:39:41.101Z,102158.59
2023-05-04T13:41:42.821Z,102154.69
2023-05-04T13:43:44.249Z,102147.50
2023-05-04T13:45:45.753Z,102145.53
2023-05-04T13:47:47.247Z,102137.03
2023-05-04T13:49:49.984Z,102142.31
2023-05-04T13:51:51.455Z,102130.00
2023-05-04T13:53:52.908Z,102134.75
2023-05-04T13:55:54.410Z,102131.06
2023-05-04T13:57:55.891Z,102123.66
2023-05-04T14:00:07.108Z,102131.19
2023-05-04T14:02:09.814Z,102116.81
2023-05-04T14:04:11.320Z,102111.88
2023-05-04T14:06:12.768Z,102114.41
2023-05-04T14:08:14.358Z,102119.69
2023-05-04T14:10:15.864Z,102104.28
2023-05-04T14:12:19.703Z,102098.41
2023-05-04T14:14:22.162Z,102105.38
2023-05-04T14:16:23.756Z,102103.47
2023-05-04T14:18:25.326Z,102095.47
2023-05-04T14:20:26.846Z,102086.38
2023-05-04T14:22:28.272Z,102087.66
2023-05-04T14:24:29.854Z,102087.03
2023-05-04T14:26:32.674Z,102089.19
2023-05-04T14:28:34.151Z,102085.38
2023-05-04T14:30:35.722Z,102080.22
2023-05-04T14:32:37.174Z,102080.31
2023-05-04T14:34:38.643Z,102076.78
2023-05-04T14:36:40.114Z,102067.28
2023-05-04T14:38:42.811Z,102073.94
2023-05-04T14:40:44.329Z,102059.34
2023-05-04T14:42:45.826Z,102070.28
2023-05-04T14:44:47.280Z,102065.00
2023-05-04T14:46:48.738Z,102063.28
2023-05-04T14:48:50.182Z,102065.28
2023-05-04T14:50:52.603Z,102058.50
2023-05-04T14:52:54.112Z,102054.22
2023-05-04T14:54:55.550Z,102056.84
2023-05-04T14:56:56.981Z,102057.78
2023-05-04T14:59:01.184Z,102043.47
2023-05-04T15:01:02.710Z,102039.13
2023-05-04T15:03:05.200Z,102036.84
2023-05-04T15:05:07.502Z,102028.44
2023-05-04T15:07:09.491Z,102028.34
2023-05-04T15:09:11.065Z,102028.47
2023-05-04T15:11:12.672Z,102018.94
2023-05-04T15:13:15.882Z,102016.75
2023-05-04T15:15:19.134Z,102014.75
2023-05-04T15:17:20.796Z,102019.34
2023-05-04T15:19:22.310Z,102014.94
2023-05-04T15:21:23.840Z,102023.94
2023-05-04T15:23:25.430Z,102017.78
2023-05-04T15:25:27.333Z,102015.75
2023-05-04T15:27:28.856Z,102009.31
2023-05-04T15:29:30.422Z,102015.47
2023-05-04T15:31:31.981Z,102015.72
2023-05-04T15:33:33.594Z,102013.03
2023-05-04T15:35:36.644Z,102008.59
2023-05-04T15:37:38.176Z,102012.84
2023-05-04T15:39:39.655Z,101995.72
2023-05-04T15:41:42.620Z,101999.88
2023-05-04T15:43:44.169Z,102002.22
2023-05-04T15:45:45.806Z,101998.31
2023-05-04T15:47:47.303Z,101999.03
2023-05-04T15:49:48.826Z,101989.84
2023-05-04T15:51:50.463Z,101993.31
2023-05-04T15:53:51.924Z,101988.63
2023-05-04T15:55:53.408Z,101987.84
2023-05-04T15:57:54.871Z,101986.88
2023-05-04T15:59:56.461Z,101983.59
2023-05-04T16:01:57.921Z,101981.34
2023-05-04T16:03:59.775Z,101980.81
2023-05-04T16:06:01.720Z,101979.50
2023-05-04T16:08:03.355Z,101973.81
2023-05-04T16:10:05.779Z,101972.47
2023-05-04T16:12:07.908Z,101976.38
2023-05-04T16:14:09.525Z,101965.88
2023-05-04T16:16:11.098Z,101972.19
2023-05-04T16:18:12.559Z,101959.56
2023-05-04T16:20:14.021Z,101961.38
2023-05-04T16:22:15.504Z,101953.31
2023-05-04T16:24:17.081Z,101964.22
2023-05-04T16:26:18.545Z,101947.25
2023-05-04T16:28:20.101Z,101947.25
2023-05-04T16:30:21.682Z,101949.06
2023-05-04T16:32:23.380Z,101943.53
2023-05-04T16:34:24.909Z,101949.06
2023-05-04T16:36:26.690Z,101953.75
2023-05-04T16:38:28.143Z,101945.06
2023-05-04T16:40:32.458Z,101940.97
2023-05-04T16:42:33.911Z,101935.22
2023-05-04T16:44:35.795Z,101932.78
2023-05-04T16:46:37.359Z,101932.69
2023-05-04T16:48:40.053Z,101938.84
2023-05-04T16:50:41.567Z,101935.13
2023-05-04T16:52:43.245Z,101922.75
2023-05-04T16:54:44.938Z,101928.28
2023-05-04T16:56:47.646Z,101928.19
2023-05-04T16:58:49.406Z,101926.28
2023-05-04T17:02:53.112Z,101925.34
2023-05-04T17:04:54.762Z,101927.16
2023-05-04T17:06:56.258Z,101929.22
2023-05-04T17:08:57.849Z,101922.19
2023-05-04T17:11:02.482Z,101928.69
2023-05-04T17:13:04.282Z,101921.03
2023-05-04T17:15:06.599Z,101921.53
2023-05-04T17:17:08.066Z,101917.09
2023-05-04T17:19:11.074Z,101917.97
2023-05-04T17:21:12.859Z,101920.66
2023-05-04T17:23:14.378Z,101923.19
2023-05-04T17:25:15.862Z,101918.75
2023-05-04T17:27:17.321Z,101914.25
2023-05-04T17:29:19.022Z,101916.47
2023-05-04T17:31:20.690Z,101915.25
2023-05-04T17:33:23.809Z,101915.19
2023-05-04T17:35:26.783Z,101920.72
2023-05-04T17:37:28.413Z,101921.50
2023-05-04T17:39:32.924Z,101915.97
2023-05-04T17:41:34.438Z,101910.44
2023-05-04T17:43:35.935Z,101903.50
2023-05-04T17:45:37.614Z,101909.13
2023-05-04T17:47:39.165Z,101905.81
2023-05-04T17:49:40.651Z,101896.44
2023-05-04T17:51:42.430Z,101905.94
2023-05-04T17:53:43.892Z,101902.16
2023-05-04T17:55:45.549Z,101905.63
2023-05-04T17:57:47.021Z,101904.50
2023-05-04T17:59:49.331Z,101902.50
2023-05-04T18:01:50.988Z,101903.34
2023-05-04T18:03:52.611Z,101904.03
2023-05-04T18:05:54.184Z,101901.88
2023-05-04T18:07:55.775Z,101906.94
2023-05-04T18:09:57.224Z,101899.38
2023-05-04T18:11:58.838Z,101908.66
2023-05-04T18:14:00.380Z,101908.22
2023-05-04T18:16:01.873Z,101897.22
2023-05-04T18:18:03.502Z,101908.34
2023-05-04T18:20:08.371Z,101912.41
2023-05-04T18:22:10.526Z,101918.28
2023-05-04T18:24:12.149Z,101918.69
2023-05-04T18:26:22.670Z,101919.91
2023-05-04T18:28:24.538Z,101921.22
2023-05-04T18:30:26.120Z,101923.41
2023-05-04T18:32:27.647Z,101919.38
2023-05-04T18:34:29.261Z,101914.28
2023-05-04T18:36:31.187Z,101920.91
2023-05-04T18:38:34.693Z,101921.22
2023-05-04T18:40:36.532Z,101925.00
2023-05-04T18:42:38.158Z,101927.09
2023-05-04T18:44:39.771Z,101931.09
2023-05-04T18:46:41.454Z,101934.13
2023-05-04T18:48:43.010Z,101934.44
2023-05-04T18:50:51.071Z,101940.06
2023-05-04T18:52:54.119Z,101936.00
2023-05-04T18:54:55.644Z,101931.66
2023-05-04T18:56:58.093Z,101942.56
2023-05-04T18:58:59.585Z,101932.13
2023-05-04T19:01:01.204Z,101936.72
2023-05-04T19:03:02.846Z,101937.81
2023-05-04T19:05:04.573Z,101954.19
2023-05-04T19:07:06.126Z,101947.13
2023-05-04T19:09:08.694Z,101942.94
2023-05-04T19:11:10.367Z,101938.53
2023-05-04T19:13:12.179Z,101943.97
2023-05-04T19:15:14.099Z,101937.94
2023-05-04T19:17:15.656Z,101944.38
2023-05-04T19:19:17.701Z,101942.75
2023-05-04T19:21:19.544Z,101947.97
2023-05-04T19:23:21.101Z,101945.47
2023-05-04T19:25:33.779Z,101947.38
2023-05-04T19:27:36.537Z,101938.72
2023-05-04T19:29:38.037Z,101940.72
2023-05-04T19:31:39.907Z,101941.78
2023-05-04T19:33:48.438Z,101936.69
2023-05-04T19:35:50.573Z,101941.13
2023-05-04T19:37:52.157Z,101936.94
2023-05-04T19:39:54.652Z,101934.38
2023-05-04T19:41:56.196Z,101946.13
2023-05-04T19:43:58.127Z,101943.50
2023-05-04T19:46:01.995Z,101943.63
2023-05-04T19:48:04.859Z,101942.00
2023-05-04T19:50:11.183Z,101944.88
2023-05-04T19:52:12.716Z,101938.78
2023-05-04T19:54:14.468Z,101935.19
2023-05-04T19:56:15.943Z,101933.75
2023-05-04T19:58:17.392Z,101941.91
2023-05-04T20:00:19.455Z,101937.50
2023-05-04T20:02:21.088Z,101934.00
2023-05-04T20:04:22.637Z,101936.03
2023-05-04T20:06:24.352Z,101943.97
2023-05-04T20:08:26.898Z,101930.00
2023-05-04T20:10:28.453Z,101934.63
2023-05-04T20:12:30.039Z,101931.19
2023-05-04T20:14:31.675Z,101934.63
2023-05-04T20:16:33.698Z,101930.53
2023-05-04T20:18:35.249Z,101933.28
2023-05-04T20:20:36.893Z,101938.75
2023-05-04T20:22:38.448Z,101936.28
2023-05-04T20:24:40.864Z,101939.94
2023-05-04T20:26:42.368Z,101939.16
2023-05-04T20:28:43.827Z,101934.91
2023-05-04T20:30:46.739Z,101932.41
2023-05-04T20:32:49.094Z,101932.53
2023-05-04T20:34:50.583Z,101937.06
2023-05-04T20:36:52.080Z,101930.09
2023-05-04T20:38:53.917Z,101934.69
2023-05-04T20:40:55.374Z,101933.06
2023-05-04T20:42:56.837Z,101943.00
2023-05-04T20:44:58.288Z,101935.09
2023-05-04T20:46:59.810Z,101943.16
2023-05-04T20:49:02.876Z,101938.84
2023-05-04T20:51:14.145Z,101943.28
2023-05-04T20:53:16.778Z,101923.16
2023-05-04T20:55:18.319Z,101922.38
2023-05-04T20:57:19.794Z,101925.13
2023-05-04T20:59:21.293Z,101926.94
2023-05-04T21:01:22.919Z,101918.09
2023-05-04T21:03:24.531Z,101928.81
2023-05-04T21:05:26.063Z,101930.59
2023-05-04T21:07:27.771Z,101928.06
2023-05-04T21:09:29.262Z,101930.84
2023-05-04T21:11:30.757Z,101931.84
2023-05-04T21:13:32.357Z,101923.91
2023-05-04T21:15:33.829Z,101933.69
2023-05-04T21:17:35.373Z,101923.91
2023-05-04T21:19:36.896Z,101932.69
2023-05-04T21:21:40.827Z,101931.84
2023-05-04T21:23:42.458Z,101931.06
2023-05-04T21:25:43.951Z,101930.25
2023-05-04T21:27:45.397Z,101935.72
2023-05-04T21:29:46.882Z,101928.69
2023-05-04T21:31:48.599Z,101924.28
2023-05-04T21:33:51.044Z,101926.16
2023-05-04T21:35:52.590Z,101924.50
2023-05-04T21:37:54.066Z,101924.81
2023-05-04T21:39:55.986Z,101922.19
2023-05-04T21:41:57.557Z,101928.50
2023-05-04T21:43:59.018Z,101918.88
2023-05-04T21:46:00.623Z,101913.72
2023-05-04T21:48:03.638Z,101907.56
2023-05-04T21:50:06.293Z,101907.75
2023-05-04T21:52:08.013Z,101908.84
2023-05-04T21:54:09.516Z,101902.91
2023-05-04T21:56:11.877Z,101900.41
2023-05-04T21:58:13.784Z,101903.09
2023-05-04T22:00:18.216Z,101902.25
2023-05-04T22:02:19.734Z,101892.69
2023-05-04T22:04:21.559Z,101902.50
2023-05-04T22:06:24.452Z,101899.09
2023-05-04T22:08:26.810Z,101901.91
2023-05-04T22:10:28.420Z,101900.28
2023-05-04T22:12:30.180Z,101898.59
2023-05-04T22:14:31.699Z,101897.72
2023-05-04T22:16:33.298Z,101894.31
2023-05-04T22:18:34.819Z,101897.84
2023-05-04T22:20:37.030Z,101901.53
2023-05-04T22:22:38.532Z,101898.13
2023-05-04T22:24:41.045Z,101892.88
2023-05-04T22:26:42.674Z,101900.94
2023-05-04T22:28:44.172Z,101900.97
2023-05-04T22:30:45.735Z,101900.09
2023-05-04T22:32:47.646Z,101897.53
2023-05-04T22:34:49.173Z,101900.25
2023-05-04T22:36:50.631Z,101902.94
2023-05-04T22:38:52.513Z,101895.84
2023-05-04T22:40:53.977Z,101897.81
2023-05-04T22:42:55.489Z,101898.81
2023-05-04T22:44:57.188Z,101895.25
2023-05-04T22:46:58.652Z,101896.28
2023-05-04T22:49:00.586Z,101891.94
2023-05-04T22:51:02.126Z,101898.13
2023-05-04T22:53:03.658Z,101893.81
2023-05-04T22:55:06.205Z,101895.59
2023-05-04T22:57:07.706Z,101892.19
2023-05-04T22:59:09.278Z,101886.16
2023-05-04T23:01:11.318Z,101892.31
2023-05-04T23:03:13.312Z,101889.69
2023-05-04T23:05:14.859Z,101888.03
2023-05-04T23:07:16.549Z,101894.25
2023-05-04T23:09:18.340Z,101890.72
2023-05-04T23:11:22.628Z,101887.31
2023-05-04T23:13:24.477Z,101886.47
2023-05-04T23:15:25.923Z,101894.44
2023-05-04T23:17:27.393Z,101890.09
2023-05-04T23:19:30.016Z,101891.94